Terminal Aerodrome Forecast
Issued by NWS

Home | Current Version | Previous Version | Graphics & Text | Print | Product List | Glossary On
Versions: 1 2 3 4 5 6 7 8 9 10 11 12 13 14 15 16 17 18 19 20 21 22 23 24 25 26 27 28 29 30
374
FTUS43 KBIS 271130
TAFMOT
TAF
KMOT 271130Z 2712/2812 VRB03KT 5SM BR SCT005 BKN060
     FM271300 33005KT 6SM -SHRA BR FEW010 BKN040
     FM271700 04006KT P6SM BKN035
     FM280700 04006KT P6SM BKN015
     FM280900 02005KT P6SM BKN008=

USA.gov is the U.S. government's official web portal to all federal, state and local government web resources and services.